createdAt,value
2018-06-20T00:02:15.078Z,59.60
2018-06-20T00:13:25.722Z,60.00
2018-06-20T00:15:53.569Z,59.90
2018-06-20T00:18:21.460Z,60.40
2018-06-20T00:20:49.229Z,61.60
2018-06-20T00:26:10.057Z,61.10
2018-06-20T00:28:37.834Z,60.70
2018-06-20T00:36:51.156Z,61.80
2018-06-20T00:39:18.928Z,62.00
2018-06-20T00:44:40.772Z,62.70
2018-06-20T00:47:24.322Z,62.80
2018-06-20T00:49:52.190Z,62.80
2018-06-20T00:52:20.007Z,63.00
2018-06-20T01:00:26.417Z,63.40
2018-06-20T01:08:42.749Z,63.80
2018-06-20T01:11:11.077Z,64.00
2018-06-20T01:19:23.977Z,63.90
2018-06-20T01:27:38.485Z,64.00
2018-06-20T01:35:28.424Z,63.50
2018-06-20T01:37:57.600Z,63.40
2018-06-20T01:40:25.435Z,63.40
2018-06-20T01:42:53.193Z,63.70
2018-06-20T01:45:21.111Z,64.10
2018-06-20T01:47:53.949Z,64.20
2018-06-20T01:50:26.256Z,64.50
2018-06-20T01:52:54.080Z,64.10
2018-06-20T01:55:21.979Z,64.30
2018-06-20T01:57:49.753Z,64.00
2018-06-20T02:02:45.306Z,64.40
2018-06-20T02:07:40.780Z,64.20
2018-06-20T02:10:08.596Z,65.00
2018-06-20T02:15:04.073Z,64.70
2018-06-20T02:17:31.944Z,64.80
2018-06-20T02:19:59.732Z,65.20
2018-06-20T02:22:27.524Z,64.70
2018-06-20T02:24:55.296Z,64.80
2018-06-20T02:27:23.102Z,64.80
2018-06-20T02:29:50.949Z,64.50
2018-06-20T02:32:18.732Z,65.00
2018-06-20T02:34:46.572Z,64.20
2018-06-20T02:37:14.454Z,63.90
2018-06-20T02:39:42.278Z,64.10
2018-06-20T02:42:10.048Z,64.50
2018-06-20T02:44:37.899Z,64.50
2018-06-20T02:49:33.748Z,65.50
2018-06-20T02:52:01.970Z,66.20
2018-06-20T02:54:30.016Z,66.20
2018-06-20T02:56:58.070Z,66.40
2018-06-20T02:59:25.877Z,66.80
2018-06-20T03:01:54.136Z,67.10
2018-06-20T03:04:21.922Z,67.60
2018-06-20T03:06:49.676Z,67.90
2018-06-20T03:09:24.800Z,67.90
2018-06-20T03:11:52.737Z,68.00
2018-06-20T03:14:20.539Z,67.40
2018-06-20T03:16:48.356Z,67.70
2018-06-20T03:21:43.958Z,67.80
2018-06-20T03:24:12.085Z,68.10
2018-06-20T03:26:39.921Z,68.30
2018-06-20T03:29:07.733Z,68.40
2018-06-20T03:31:35.665Z,68.50
2018-06-20T03:34:04.082Z,68.30
2018-06-20T03:36:32.355Z,68.40
2018-06-20T03:39:00.129Z,68.40
2018-06-20T03:41:28.053Z,68.30
2018-06-20T03:43:55.892Z,68.20
2018-06-20T03:46:23.854Z,68.40
2018-06-20T03:48:51.706Z,68.40
2018-06-20T03:51:19.487Z,68.50
2018-06-20T03:53:47.280Z,67.90
2018-06-20T03:58:42.752Z,68.20
2018-06-20T04:01:10.623Z,68.30
2018-06-20T04:03:38.429Z,68.50
2018-06-20T04:06:06.319Z,68.60
2018-06-20T04:08:34.493Z,68.70
2018-06-20T04:13:30.728Z,68.60
2018-06-20T04:15:58.534Z,68.80
2018-06-20T04:18:41.958Z,68.70
2018-06-20T04:21:11.380Z,68.40
2018-06-20T04:23:39.228Z,67.80
2018-06-20T04:26:08.018Z,67.60
2018-06-20T04:28:35.962Z,68.00
2018-06-20T04:33:33.033Z,67.80
2018-06-20T04:38:28.969Z,67.80
2018-06-20T04:43:25.209Z,68.70
2018-06-20T04:45:53.008Z,69.20
2018-06-20T04:48:20.821Z,69.50
2018-06-20T04:50:48.800Z,69.40
2018-06-20T04:53:17.324Z,69.00
2018-06-20T04:55:45.317Z,69.40
2018-06-20T04:58:13.633Z,68.50
2018-06-20T05:00:41.493Z,68.30
2018-06-20T05:03:09.253Z,67.80
2018-06-20T05:05:37.069Z,67.70
2018-06-20T05:08:05.147Z,67.00
2018-06-20T05:10:33.346Z,66.20
2018-06-20T05:13:01.142Z,65.70
2018-06-20T05:15:29.097Z,66.00
2018-06-20T05:17:56.872Z,65.50
2018-06-20T05:20:24.746Z,65.50
2018-06-20T05:22:52.493Z,65.80
2018-06-20T05:25:20.373Z,65.90
2018-06-20T05:30:15.880Z,65.20
2018-06-20T05:32:43.684Z,64.60
2018-06-20T05:35:11.421Z,65.10
2018-06-20T05:37:39.225Z,64.70
2018-06-20T05:40:07.109Z,64.60
2018-06-20T05:42:35.137Z,64.30
2018-06-20T05:45:03.563Z,64.10
2018-06-20T05:47:31.353Z,63.50
2018-06-20T05:49:59.210Z,63.40
2018-06-20T05:52:26.985Z,63.10
2018-06-20T05:54:54.927Z,62.80
2018-06-20T05:57:22.740Z,62.50
2018-06-20T05:59:50.547Z,62.90
2018-06-20T06:02:18.462Z,62.00
2018-06-20T06:04:46.465Z,60.10
2018-06-20T06:09:41.946Z,59.00
2018-06-20T06:12:09.702Z,58.00
2018-06-20T06:14:37.534Z,57.70
2018-06-20T06:17:05.659Z,57.30
2018-06-20T06:19:33.773Z,55.90
2018-06-20T06:22:01.581Z,54.70
2018-06-20T06:24:29.649Z,54.80
2018-06-20T06:26:57.608Z,54.40
2018-06-20T06:29:25.404Z,54.30
2018-06-20T06:31:53.278Z,54.00
2018-06-20T06:34:21.013Z,54.10
2018-06-20T06:36:48.745Z,52.50
2018-06-20T06:39:16.921Z,51.70
2018-06-20T06:41:44.730Z,51.60
2018-06-20T06:44:12.565Z,51.80
2018-06-20T06:46:40.428Z,50.30
2018-06-20T06:49:08.181Z,51.00
2018-06-20T06:54:04.103Z,50.70
2018-06-20T06:56:31.877Z,50.50
2018-06-20T06:58:59.709Z,49.60
2018-06-20T07:01:27.498Z,49.30
2018-06-20T07:03:55.408Z,47.20
2018-06-20T07:06:23.367Z,47.60
2018-06-20T07:08:51.165Z,46.00
2018-06-20T07:11:18.982Z,46.40
2018-06-20T07:13:46.779Z,46.70
2018-06-20T07:16:14.655Z,44.90
2018-06-20T07:18:42.441Z,44.70
2018-06-20T07:21:10.282Z,43.30
2018-06-20T07:23:38.085Z,43.30
2018-06-20T07:26:06.177Z,42.20
2018-06-20T07:28:34.247Z,41.70
2018-06-20T07:31:02.014Z,41.40
2018-06-20T07:33:29.841Z,42.10
2018-06-20T07:35:57.898Z,40.90
2018-06-20T07:38:25.561Z,41.40
2018-06-20T07:40:53.432Z,41.40
2018-06-20T07:43:21.196Z,41.20
2018-06-20T07:45:49.138Z,40.40
2018-06-20T07:48:17.015Z,40.50
2018-06-20T07:50:44.832Z,40.40
2018-06-20T07:53:12.601Z,39.70
2018-06-20T07:55:40.506Z,38.80
2018-06-20T07:58:09.130Z,37.40
2018-06-20T08:00:42.667Z,37.80
2018-06-20T08:03:17.687Z,37.70
2018-06-20T08:05:51.144Z,38.70
2018-06-20T08:09:22.612Z,38.30
2018-06-20T08:11:55.960Z,38.20
2018-06-20T08:14:29.418Z,39.60
2018-06-20T08:17:03.995Z,38.20
2018-06-20T08:19:37.323Z,38.60
2018-06-20T08:22:05.296Z,37.50
2018-06-20T08:24:33.252Z,37.70
2018-06-20T08:27:01.058Z,38.80
2018-06-20T08:29:29.081Z,38.00
2018-06-20T08:31:56.900Z,38.40
2018-06-20T08:48:50.450Z,37.80
2018-06-20T08:51:18.249Z,37.80
2018-06-20T08:53:46.049Z,37.20
2018-06-20T08:56:14.042Z,37.30
2018-06-20T08:58:41.886Z,37.60
2018-06-20T09:01:09.678Z,38.10
2018-06-20T09:03:38.061Z,36.80
2018-06-20T09:06:12.469Z,36.20
2018-06-20T09:11:18.929Z,35.70
2018-06-20T09:13:52.566Z,36.90
2018-06-20T09:16:25.889Z,37.20
2018-06-20T09:18:59.137Z,35.20
2018-06-20T09:21:26.918Z,34.60
2018-06-20T09:23:54.796Z,36.00
2018-06-20T09:26:22.741Z,35.30
2018-06-20T09:28:50.552Z,35.60
2018-06-20T09:31:18.370Z,34.50
2018-06-20T09:47:51.678Z,34.80
2018-06-20T09:50:24.932Z,34.30
2018-06-20T09:52:52.808Z,35.70
2018-06-20T09:55:20.721Z,35.60
2018-06-20T10:00:41.214Z,38.20
2018-06-20T10:03:14.801Z,36.50
2018-06-20T10:05:48.369Z,37.70
2018-06-20T10:08:21.805Z,37.00
2018-06-20T10:10:55.362Z,36.10
2018-06-20T10:13:25.435Z,37.90
2018-06-20T10:15:53.460Z,37.70
2018-06-20T10:18:21.781Z,36.70
2018-06-20T10:23:17.534Z,37.70
2018-06-20T10:25:45.374Z,37.20
2018-06-20T10:42:38.256Z,37.20
2018-06-20T10:45:11.604Z,37.70
2018-06-20T10:53:00.379Z,35.90
2018-06-20T10:55:28.181Z,36.20
2018-06-20T10:58:01.497Z,39.00
2018-06-20T11:03:08.147Z,37.90
2018-06-20T11:05:41.553Z,37.10
2018-06-20T11:08:14.989Z,37.60
2018-06-20T11:13:16.262Z,37.40
2018-06-20T11:15:44.980Z,37.10
2018-06-20T11:18:12.783Z,36.80
2018-06-20T11:20:46.089Z,38.40
2018-06-20T11:25:41.621Z,36.90
2018-06-20T11:28:12.392Z,38.00
2018-06-20T11:30:41.585Z,37.20
2018-06-20T11:33:09.362Z,37.90
2018-06-20T11:35:37.512Z,37.50
2018-06-20T11:38:05.514Z,38.10
2018-06-20T11:40:33.365Z,38.90
2018-06-20T11:43:01.774Z,37.80
2018-06-20T11:45:35.259Z,37.20
2018-06-20T11:48:03.214Z,38.60
2018-06-20T11:50:31.047Z,38.50
2018-06-20T11:55:36.859Z,38.50
2018-06-20T11:58:10.807Z,38.80
2018-06-20T12:00:44.223Z,38.10
2018-06-20T12:05:23.070Z,38.00
2018-06-20T12:13:03.516Z,37.70
2018-06-20T12:15:36.849Z,38.80
2018-06-20T12:20:43.361Z,40.50
2018-06-20T12:23:16.873Z,38.80
2018-06-20T12:25:50.349Z,40.90
2018-06-20T12:30:57.136Z,38.80
2018-06-20T12:33:30.577Z,38.50
2018-06-20T12:36:04.212Z,41.40
2018-06-20T12:38:37.801Z,39.40
2018-06-20T12:41:11.137Z,41.70
2018-06-20T12:43:44.509Z,39.30
2018-06-20T12:46:15.758Z,40.00
2018-06-20T12:48:43.537Z,40.70
2018-06-20T12:51:11.461Z,43.20
2018-06-20T12:53:39.257Z,41.00
2018-06-20T12:56:07.036Z,42.90
2018-06-20T12:58:34.824Z,42.50
2018-06-20T13:01:02.609Z,40.80
2018-06-20T13:03:30.617Z,42.50
2018-06-20T13:05:58.857Z,39.80
2018-06-20T13:08:26.816Z,40.40
2018-06-20T13:10:54.668Z,41.90
2018-06-20T13:13:22.529Z,42.70
2018-06-20T13:15:50.332Z,41.10
2018-06-20T13:18:18.129Z,43.20
2018-06-20T13:20:45.934Z,41.90
2018-06-20T13:23:13.700Z,40.40
2018-06-20T13:25:41.579Z,39.30
2018-06-20T13:28:09.404Z,38.90
2018-06-20T13:30:37.232Z,40.50
2018-06-20T13:33:10.646Z,41.10
2018-06-20T13:35:43.889Z,42.00
2018-06-20T13:52:36.232Z,42.00
2018-06-20T13:55:04.093Z,41.20
2018-06-20T13:57:32.000Z,42.30
2018-06-20T14:00:00.462Z,42.90
2018-06-20T14:02:28.836Z,42.60
2018-06-20T14:04:57.034Z,42.20
2018-06-20T14:07:24.878Z,41.40
2018-06-20T14:09:52.735Z,42.40
2018-06-20T14:12:21.242Z,42.80
2018-06-20T14:14:49.198Z,41.90
2018-06-20T14:17:17.217Z,42.30
2018-06-20T14:22:18.321Z,42.10
2018-06-20T14:24:46.192Z,41.40
2018-06-20T14:27:14.163Z,42.00
2018-06-20T14:29:42.837Z,40.90
2018-06-20T14:32:16.657Z,42.00
2018-06-20T14:37:23.441Z,40.30
2018-06-20T14:39:57.179Z,39.40
2018-06-20T14:45:04.277Z,39.70
2018-06-20T14:47:32.346Z,40.80
2018-06-20T14:50:01.515Z,40.10
2018-06-20T14:52:30.365Z,39.60
2018-06-20T14:54:58.504Z,40.50
2018-06-20T14:59:54.412Z,39.70
2018-06-20T15:02:22.382Z,40.40
2018-06-20T15:04:50.250Z,39.80
2018-06-20T15:07:18.317Z,41.50
2018-06-20T15:09:46.253Z,40.70
2018-06-20T15:12:14.145Z,40.80
2018-06-20T15:14:42.040Z,39.90
2018-06-20T15:17:15.345Z,41.10
2018-06-20T15:19:43.441Z,39.80
2018-06-20T15:22:11.493Z,39.70
2018-06-20T15:24:40.535Z,40.50
2018-06-20T15:27:14.990Z,39.60
2018-06-20T15:29:48.474Z,42.10
2018-06-20T15:32:21.908Z,41.90
2018-06-20T15:34:55.552Z,40.90
2018-06-20T15:39:56.895Z,40.50
2018-06-20T15:42:24.752Z,40.40
2018-06-20T15:44:52.535Z,41.20
2018-06-20T15:49:48.135Z,40.70
2018-06-20T15:52:16.184Z,40.30
2018-06-20T15:54:44.094Z,39.80
2018-06-20T15:57:12.809Z,39.50
2018-06-20T15:59:40.872Z,38.90
2018-06-20T16:02:08.841Z,41.00
2018-06-20T16:04:36.676Z,40.70
2018-06-20T16:07:04.573Z,39.70
2018-06-20T16:09:38.214Z,40.00
2018-06-20T16:12:06.725Z,39.30
2018-06-20T16:14:34.626Z,38.90
2018-06-20T16:19:36.786Z,39.20
2018-06-20T16:23:12.500Z,39.80
2018-06-20T16:28:19.425Z,39.90
2018-06-20T16:30:47.445Z,40.00
2018-06-20T16:33:15.213Z,40.90
2018-06-20T16:35:43.036Z,40.10
2018-06-20T16:38:10.859Z,40.70
2018-06-20T16:40:38.716Z,40.40
2018-06-20T16:43:06.508Z,40.60
2018-06-20T16:59:59.445Z,40.70
2018-06-20T17:02:32.793Z,40.10
2018-06-20T17:05:01.728Z,40.30
2018-06-20T17:09:58.366Z,40.20
2018-06-20T17:12:31.851Z,39.90
2018-06-20T17:15:05.381Z,39.80
2018-06-20T17:17:39.706Z,40.10
2018-06-20T17:20:13.102Z,40.50
2018-06-20T17:37:05.414Z,42.30
2018-06-20T17:39:33.616Z,42.20
2018-06-20T17:42:01.860Z,42.50
2018-06-20T17:44:30.148Z,42.10
2018-06-20T17:46:58.330Z,42.40
2018-06-20T18:06:36.393Z,43.70
2018-06-20T18:09:11.860Z,44.00
2018-06-20T18:11:45.356Z,44.40
2018-06-20T18:16:33.196Z,44.60
2018-06-20T18:19:01.089Z,44.60
2018-06-20T18:35:00.545Z,46.50
2018-06-20T18:37:28.385Z,46.20
2018-06-20T18:40:00.750Z,46.50
2018-06-20T18:42:28.531Z,46.60
2018-06-20T18:44:56.373Z,46.80
2018-06-20T18:47:29.929Z,47.20
2018-06-20T18:49:57.765Z,47.00
2018-06-20T18:54:53.321Z,47.20
2018-06-20T18:57:41.815Z,46.80
2018-06-20T19:13:33.072Z,48.40
2018-06-20T19:16:00.885Z,48.70
2018-06-20T19:18:28.949Z,48.90
2018-06-20T19:20:56.776Z,49.30
2018-06-20T19:23:24.629Z,49.50
2018-06-20T19:25:52.805Z,50.60
2018-06-20T19:30:48.353Z,50.70
2018-06-20T19:33:16.158Z,50.80
2018-06-20T19:35:43.929Z,50.90
2018-06-20T19:38:11.745Z,51.20
2018-06-20T19:40:39.497Z,51.50
2018-06-20T19:43:07.353Z,51.80
2018-06-20T19:45:35.208Z,52.10
2018-06-20T19:48:03.216Z,52.40
2018-06-20T19:50:31.385Z,52.60
2018-06-20T19:55:26.794Z,53.30
2018-06-20T19:57:54.594Z,53.20
2018-06-20T20:00:22.367Z,53.40
2018-06-20T20:02:50.182Z,54.00
2018-06-20T20:05:18.057Z,53.80
2018-06-20T20:07:46.065Z,53.80
2018-06-20T20:10:14.057Z,54.00
2018-06-20T20:12:41.837Z,54.10
2018-06-20T20:15:09.633Z,54.30
2018-06-20T20:17:37.452Z,54.70
2018-06-20T20:20:05.989Z,54.60
2018-06-20T20:22:33.997Z,54.80
2018-06-20T20:25:02.247Z,55.10
2018-06-20T20:27:30.088Z,55.30
2018-06-20T20:29:57.949Z,55.80
2018-06-20T20:32:25.765Z,55.70
2018-06-20T20:34:53.560Z,55.70
2018-06-20T20:37:21.409Z,55.70
2018-06-20T20:39:49.213Z,55.50
2018-06-20T20:42:16.996Z,55.50
2018-06-20T20:44:44.804Z,55.50
2018-06-20T20:47:12.556Z,55.60
2018-06-20T20:49:40.417Z,55.50
2018-06-20T20:52:08.381Z,55.80
2018-06-20T20:54:36.173Z,55.30
2018-06-20T20:57:04.119Z,55.30
2018-06-20T20:59:32.140Z,55.00
2018-06-20T21:02:43.994Z,55.10
2018-06-20T21:18:34.860Z,55.00
2018-06-20T21:21:02.754Z,55.10
2018-06-20T21:23:30.609Z,55.10
2018-06-20T21:25:58.462Z,55.10
2018-06-20T21:28:26.253Z,55.30
2018-06-20T21:30:54.069Z,55.80
2018-06-20T21:33:22.052Z,55.90
2018-06-20T21:35:49.865Z,56.00
2018-06-20T21:38:17.642Z,55.90
2018-06-20T21:40:45.427Z,56.10
2018-06-20T21:43:13.257Z,56.30
2018-06-20T21:45:41.089Z,56.60
2018-06-20T21:48:08.956Z,56.30
2018-06-20T21:50:36.906Z,56.70
2018-06-20T21:53:04.813Z,57.00
2018-06-20T21:55:32.713Z,57.00
2018-06-20T21:58:00.561Z,57.50
2018-06-20T22:00:29.781Z,57.00
2018-06-20T22:02:57.709Z,57.10
2018-06-20T22:05:25.566Z,56.60
2018-06-20T22:07:53.373Z,56.70
2018-06-20T22:10:21.442Z,57.20
2018-06-20T22:12:49.509Z,57.30
2018-06-20T22:15:17.342Z,57.50
2018-06-20T22:17:47.515Z,57.30
2018-06-20T22:20:16.341Z,57.10
2018-06-20T22:22:44.259Z,57.50
2018-06-20T22:25:12.768Z,57.70
2018-06-20T22:27:40.618Z,57.40
2018-06-20T22:30:08.469Z,57.60
2018-06-20T22:32:36.272Z,57.40
2018-06-20T22:35:04.411Z,57.00
2018-06-20T22:37:32.272Z,56.70
2018-06-20T22:40:00.112Z,56.90
2018-06-20T22:42:27.945Z,57.20
2018-06-20T22:44:55.781Z,56.10
2018-06-20T22:47:23.591Z,56.00
2018-06-20T22:52:19.030Z,56.90
2018-06-20T22:54:46.890Z,56.80
2018-06-20T22:57:14.708Z,56.40
2018-06-20T22:59:42.534Z,56.30
2018-06-20T23:02:10.329Z,56.60
2018-06-20T23:04:38.217Z,56.70
2018-06-20T23:07:06.158Z,56.80
2018-06-20T23:09:34.236Z,57.00
2018-06-20T23:12:02.253Z,57.40
2018-06-20T23:14:30.249Z,57.00
2018-06-20T23:16:58.101Z,57.20
2018-06-20T23:19:25.860Z,57.00
2018-06-20T23:21:53.721Z,57.20
2018-06-20T23:24:21.501Z,57.50
2018-06-20T23:26:49.284Z,57.50
2018-06-20T23:29:17.168Z,57.30
2018-06-20T23:31:44.981Z,57.20
2018-06-20T23:34:12.781Z,57.20
2018-06-20T23:36:40.582Z,57.30
2018-06-20T23:39:09.306Z,57.40
2018-06-20T23:41:37.529Z,57.30
2018-06-20T23:44:05.563Z,57.90
2018-06-20T23:46:33.381Z,57.80
2018-06-20T23:49:01.245Z,57.90
2018-06-20T23:51:29.047Z,58.00
2018-06-20T23:53:56.944Z,58.30
2018-06-20T23:56:24.812Z,58.50
2018-06-20T23:58:52.902Z,58.50
